createdAt,value
2023-04-10T00:00:45.836Z,101187.69
2023-04-10T00:03:25.607Z,101188.05
2023-04-10T00:05:57.613Z,101189.89
2023-04-10T00:08:28.355Z,101188.88
2023-04-10T00:10:59.254Z,101188.11
2023-04-10T00:13:30.130Z,101187.31
2023-04-10T00:16:01.342Z,101186.48
2023-04-10T00:18:32.131Z,101180.33
2023-04-10T00:21:02.911Z,101183.86
2023-04-10T00:23:34.890Z,101177.99
2023-04-10T00:26:05.900Z,101177.77
2023-04-10T00:28:38.322Z,101170.85
2023-04-10T00:31:09.130Z,101164.02
2023-04-10T00:33:39.938Z,101162.16
2023-04-10T00:36:10.927Z,101163.20
2023-04-10T00:38:42.229Z,101157.34
2023-04-10T00:41:13.049Z,101157.65
2023-04-10T00:43:43.917Z,101156.39
2023-04-10T00:46:14.760Z,101150.92
2023-04-10T00:48:45.694Z,101149.94
2023-04-10T00:51:16.574Z,101146.52
2023-04-10T00:53:47.446Z,101146.67
2023-04-10T00:56:18.348Z,101141.17
2023-04-10T00:58:49.248Z,101140.23
2023-04-10T01:01:20.174Z,101138.65
2023-04-10T01:03:51.075Z,101137.73
2023-04-10T01:06:32.685Z,101133.00
2023-04-10T01:09:07.360Z,101129.09
2023-04-10T01:11:41.238Z,101127.95
2023-04-10T01:14:13.980Z,101126.54
2023-04-10T01:16:46.646Z,101120.92
2023-04-10T01:19:20.399Z,101116.67
2023-04-10T01:21:51.538Z,101114.55
2023-04-10T01:24:26.219Z,101118.85
2023-04-10T01:27:03.081Z,101120.07
2023-04-10T01:29:34.116Z,101120.01
2023-04-10T01:32:05.521Z,101120.27
2023-04-10T01:34:38.210Z,101122.20
2023-04-10T01:37:10.244Z,101117.63
2023-04-10T01:39:41.409Z,101121.49
2023-04-10T01:42:12.476Z,101119.49
2023-04-10T01:44:44.145Z,101119.06
2023-04-10T01:47:14.898Z,101119.20
2023-04-10T01:49:46.770Z,101118.38
2023-04-10T01:52:17.519Z,101117.23
2023-04-10T01:54:48.751Z,101112.33
2023-04-10T01:57:19.509Z,101111.16
2023-04-10T01:59:50.812Z,101108.44
2023-04-10T02:02:21.686Z,101108.88
2023-04-10T02:04:52.615Z,101106.71
2023-04-10T02:07:24.237Z,101104.15
2023-04-10T02:09:57.172Z,101102.73
2023-04-10T02:12:30.185Z,101101.38
2023-04-10T02:15:01.517Z,101101.96
2023-04-10T02:17:32.907Z,101101.24
2023-04-10T02:20:04.342Z,101103.27
2023-04-10T02:22:35.511Z,101102.38
2023-04-10T02:25:07.512Z,101104.58
2023-04-10T02:27:38.512Z,101105.56
2023-04-10T02:30:10.370Z,101107.70
2023-04-10T02:32:42.186Z,101106.20
2023-04-10T02:35:13.223Z,101105.98
2023-04-10T02:37:44.036Z,101106.02
2023-04-10T02:40:14.908Z,101109.30
2023-04-10T02:42:45.734Z,101105.21
2023-04-10T02:45:16.604Z,101106.68
2023-04-10T02:47:47.488Z,101106.75
2023-04-10T02:50:18.292Z,101102.76
2023-04-10T02:52:49.116Z,101102.57
2023-04-10T02:55:20.013Z,101101.32
2023-04-10T02:57:51.552Z,101099.13
2023-04-10T03:00:23.163Z,101099.00
2023-04-10T03:02:54.780Z,101096.98
2023-04-10T03:05:25.548Z,101099.16
2023-04-10T03:07:56.513Z,101100.20
2023-04-10T03:10:27.120Z,101103.94
2023-04-10T03:12:57.732Z,101100.96
2023-04-10T03:15:28.501Z,101103.80
2023-04-10T03:17:59.163Z,101101.88
2023-04-10T03:20:29.863Z,101103.58
2023-04-10T03:23:00.808Z,101099.89
2023-04-10T03:25:32.330Z,101103.21
2023-04-10T03:28:03.013Z,101102.95
2023-04-10T03:30:35.373Z,101101.66
2023-04-10T03:33:06.172Z,101101.67
2023-04-10T03:35:36.846Z,101104.19
2023-04-10T03:38:07.711Z,101108.09
2023-04-10T03:40:38.635Z,101105.17
2023-04-10T03:43:09.298Z,101108.34
2023-04-10T03:45:40.513Z,101104.09
2023-04-10T03:48:11.187Z,101107.31
2023-04-10T03:50:41.945Z,101108.88
2023-04-10T03:53:12.775Z,101112.16
2023-04-10T03:55:43.528Z,101114.18
2023-04-10T03:58:14.341Z,101114.70
2023-04-10T04:00:45.274Z,101119.36
2023-04-10T04:03:16.229Z,101117.66
2023-04-10T04:05:47.259Z,101117.49
2023-04-10T04:08:18.113Z,101117.17
2023-04-10T04:10:48.786Z,101118.41
2023-04-10T04:13:19.436Z,101116.23
2023-04-10T04:15:50.124Z,101113.45
2023-04-10T04:18:20.861Z,101117.77
2023-04-10T04:20:51.657Z,101118.73
2023-04-10T04:23:22.282Z,101117.67
2023-04-10T04:25:54.438Z,101117.62
2023-04-10T04:28:25.345Z,101120.73
2023-04-10T04:30:56.226Z,101115.57
2023-04-10T04:33:27.124Z,101116.30
2023-04-10T04:35:58.027Z,101113.77
2023-04-10T04:38:29.003Z,101118.77
2023-04-10T04:40:59.868Z,101119.55
2023-04-10T04:43:30.754Z,101121.77
2023-04-10T04:46:01.589Z,101125.11
2023-04-10T04:48:32.412Z,101119.96
2023-04-10T04:51:03.208Z,101123.96
2023-04-10T04:53:33.929Z,101120.95
2023-04-10T04:56:05.154Z,101120.80
2023-04-10T04:58:35.893Z,101125.52
2023-04-10T05:01:07.190Z,101122.89
2023-04-10T05:03:38.274Z,101121.98
2023-04-10T05:06:09.265Z,101125.31
2023-04-10T05:08:39.976Z,101125.61
2023-04-10T05:11:10.843Z,101126.60
2023-04-10T05:13:41.703Z,101129.00
2023-04-10T05:16:12.454Z,101127.26
2023-04-10T05:18:43.455Z,101123.16
2023-04-10T05:21:14.223Z,101123.50
2023-04-10T05:23:45.058Z,101124.89
2023-04-10T05:26:15.948Z,101120.36
2023-04-10T05:28:46.844Z,101122.92
2023-04-10T05:31:17.741Z,101119.96
2023-04-10T05:33:48.666Z,101119.96
2023-04-10T05:36:19.639Z,101118.27
2023-04-10T05:38:50.612Z,101116.80
2023-04-10T05:41:21.990Z,101118.54
2023-04-10T05:43:52.866Z,101117.04
2023-04-10T05:46:23.589Z,101118.38
2023-04-10T05:48:54.722Z,101114.03
2023-04-10T05:51:26.326Z,101115.14
2023-04-10T05:53:57.120Z,101119.90
2023-04-10T05:56:27.898Z,101118.41
2023-04-10T05:58:58.684Z,101117.09
2023-04-10T06:01:29.539Z,101119.22
2023-04-10T06:04:00.588Z,101120.38
2023-04-10T06:06:31.489Z,101118.33
2023-04-10T06:09:02.216Z,101116.98
2023-04-10T06:11:32.973Z,101118.39
2023-04-10T06:14:03.751Z,101116.31
2023-04-10T06:16:34.606Z,101123.16
2023-04-10T06:19:05.569Z,101120.59
2023-04-10T06:21:36.389Z,101117.38
2023-04-10T06:24:07.850Z,101122.54
2023-04-10T06:26:38.495Z,101116.86
2023-04-10T06:29:09.233Z,101111.73
2023-04-10T06:31:40.194Z,101112.11
2023-04-10T06:34:10.897Z,101113.17
2023-04-10T06:36:41.770Z,101113.07
2023-04-10T06:39:12.540Z,101115.03
2023-04-10T06:41:43.164Z,101114.04
2023-04-10T06:44:13.979Z,101116.36
2023-04-10T06:46:44.913Z,101115.52
2023-04-10T06:49:15.659Z,101117.95
2023-04-10T06:51:48.341Z,101115.94
2023-04-10T06:54:19.330Z,101121.81
2023-04-10T06:56:50.122Z,101120.04
2023-04-10T06:59:20.836Z,101116.47
2023-04-10T07:01:51.459Z,101115.58
2023-04-10T07:04:22.211Z,101117.70
2023-04-10T07:06:52.993Z,101118.52
2023-04-10T07:09:23.949Z,101121.05
2023-04-10T07:11:54.685Z,101120.13
2023-04-10T07:14:25.408Z,101125.59
2023-04-10T07:16:56.175Z,101123.80
2023-04-10T07:19:27.266Z,101123.45
2023-04-10T07:21:58.042Z,101121.94
2023-04-10T07:24:29.258Z,101123.88
2023-04-10T07:27:01.650Z,101121.34
2023-04-10T07:29:32.363Z,101125.59
2023-04-10T07:32:03.338Z,101117.98
2023-04-10T07:34:34.196Z,101120.50
2023-04-10T07:37:05.021Z,101118.77
2023-04-10T07:39:35.968Z,101114.65
2023-04-10T07:42:08.413Z,101110.99
2023-04-10T07:44:39.095Z,101109.50
2023-04-10T07:47:09.911Z,101104.93
2023-04-10T07:49:41.317Z,101106.41
2023-04-10T07:52:12.228Z,101110.31
2023-04-10T07:54:43.055Z,101109.43
2023-04-10T07:57:13.867Z,101111.16
2023-04-10T07:59:44.549Z,101106.79
2023-04-10T08:02:15.598Z,101104.36
2023-04-10T08:04:46.486Z,101103.24
2023-04-10T08:07:17.249Z,101106.27
2023-04-10T08:09:47.962Z,101103.19
2023-04-10T08:12:18.674Z,101103.61
2023-04-10T08:14:51.644Z,101100.30
2023-04-10T08:17:22.377Z,101095.96
2023-04-10T08:19:53.076Z,101094.35
2023-04-10T08:22:23.879Z,101093.39
2023-04-10T08:24:54.677Z,101092.08
2023-04-10T08:27:25.410Z,101087.99
2023-04-10T08:29:56.192Z,101091.81
2023-04-10T08:32:27.743Z,101089.09
2023-04-10T08:34:58.526Z,101087.67
2023-04-10T08:37:29.163Z,101086.97
2023-04-10T08:40:00.326Z,101084.70
2023-04-10T08:42:32.223Z,101080.83
2023-04-10T08:45:04.279Z,101081.16
2023-04-10T08:47:35.486Z,101077.31
2023-04-10T08:50:07.552Z,101079.41
2023-04-10T08:52:39.213Z,101074.15
2023-04-10T08:55:11.024Z,101068.23
2023-04-10T08:57:45.211Z,101067.05
2023-04-10T09:00:23.322Z,101061.10
2023-04-10T09:02:58.451Z,101062.59
2023-04-10T09:05:29.953Z,101059.70
2023-04-10T09:08:00.583Z,101055.58
2023-04-10T09:10:31.458Z,101054.37
2023-04-10T09:13:04.112Z,101053.02
2023-04-10T09:15:39.093Z,101056.08
2023-04-10T09:18:11.253Z,101051.69
2023-04-10T09:20:43.049Z,101049.49
2023-04-10T09:23:23.490Z,101044.00
2023-04-10T09:25:55.082Z,101039.68
2023-04-10T09:28:26.839Z,101038.05
2023-04-10T09:30:58.191Z,101036.31
2023-04-10T09:33:30.733Z,101031.65
2023-04-10T09:36:05.085Z,101030.19
2023-04-10T09:38:37.461Z,101026.41
2023-04-10T09:45:03.074Z,101016.29
2023-04-10T09:47:35.162Z,101009.27
2023-04-10T09:50:07.077Z,101000.88
2023-04-10T09:52:40.078Z,100996.91
2023-04-10T09:55:12.073Z,100996.20
2023-04-10T09:57:44.080Z,101002.23
2023-04-10T10:00:17.079Z,100996.33
2023-04-10T10:02:49.251Z,100993.52
2023-04-10T10:05:20.469Z,100990.98
2023-04-10T10:07:52.289Z,100991.71
2023-04-10T10:10:24.031Z,100982.80
2023-04-10T10:19:03.083Z,100976.60
2023-04-10T10:21:34.428Z,100977.39
2023-04-10T10:24:05.296Z,100975.46
2023-04-10T10:26:36.233Z,100968.65
2023-04-10T10:29:10.727Z,100967.59
2023-04-10T10:31:41.702Z,100964.13
2023-04-10T10:34:12.650Z,100959.85
2023-04-10T10:36:43.586Z,100952.16
2023-04-10T10:39:18.841Z,100950.76
2023-04-10T10:41:52.193Z,100943.36
2023-04-10T10:44:25.055Z,100941.94
2023-04-10T10:46:59.603Z,100939.13
2023-04-10T10:49:43.862Z,100937.11
2023-04-10T10:52:14.677Z,100932.97
2023-04-10T10:54:53.790Z,100932.29
2023-04-10T10:57:49.112Z,100927.39
2023-04-10T11:00:20.113Z,100923.10
2023-04-10T11:02:59.306Z,100922.59
2023-04-10T11:05:43.480Z,100912.98
2023-04-10T11:08:14.283Z,100905.50
2023-04-10T11:11:05.329Z,100900.17
2023-04-10T11:13:36.536Z,100899.02
2023-04-10T11:16:08.339Z,100895.15
2023-04-10T11:19:13.819Z,100889.79
2023-04-10T11:22:05.824Z,100888.54
2023-04-10T11:24:56.409Z,100881.33
2023-04-10T11:27:56.055Z,100879.24
2023-04-10T11:30:33.861Z,100881.98
2023-04-10T11:33:05.552Z,100882.02
2023-04-10T11:35:36.497Z,100874.39
2023-04-10T11:38:15.175Z,100871.48
2023-04-10T11:40:58.742Z,100872.65
2023-04-10T11:43:29.647Z,100867.80
2023-04-10T11:46:07.705Z,100865.69
2023-04-10T11:48:39.012Z,100861.99
2023-04-10T11:51:10.552Z,100861.58
2023-04-10T11:53:41.509Z,100853.69
2023-04-10T11:56:18.056Z,100848.42
2023-04-10T11:58:48.866Z,100841.34
2023-04-10T12:01:21.281Z,100844.47
2023-04-10T12:03:52.390Z,100837.70
2023-04-10T12:06:23.620Z,100830.80
2023-04-10T12:08:54.748Z,100827.41
2023-04-10T12:11:26.859Z,100823.40
2023-04-10T12:13:58.290Z,100821.02
2023-04-10T12:16:29.179Z,100819.90
2023-04-10T12:19:00.071Z,100817.98
2023-04-10T12:21:31.350Z,100809.94
2023-04-10T12:24:02.012Z,100804.30
2023-04-10T12:26:32.757Z,100800.98
2023-04-10T12:29:03.658Z,100801.36
2023-04-10T12:31:35.104Z,100794.77
2023-04-10T12:34:08.497Z,100791.52
2023-04-10T12:36:40.927Z,100787.66
2023-04-10T12:39:23.271Z,100783.92
2023-04-10T12:41:54.109Z,100778.61
2023-04-10T12:44:25.150Z,100774.98
2023-04-10T12:47:02.541Z,100772.45
2023-04-10T12:49:33.571Z,100769.34
2023-04-10T12:52:04.685Z,100768.33
2023-04-10T12:54:36.687Z,100768.77
2023-04-10T12:57:08.205Z,100770.42
2023-04-10T12:59:39.452Z,100766.61
2023-04-10T13:02:10.981Z,100761.15
2023-04-10T13:04:43.082Z,100763.02
2023-04-10T13:07:14.043Z,100761.84
2023-04-10T13:09:44.909Z,100759.80
2023-04-10T13:12:16.110Z,100760.48
2023-04-10T13:14:47.915Z,100753.41
2023-04-10T13:17:18.709Z,100751.62
2023-04-10T13:19:49.572Z,100748.16
2023-04-10T13:22:20.385Z,100742.30
2023-04-10T13:24:51.442Z,100747.27
2023-04-10T13:27:22.116Z,100743.42
2023-04-10T13:29:52.983Z,100743.48
2023-04-10T13:32:23.967Z,100747.54
2023-04-10T13:34:57.219Z,100750.14
2023-04-10T13:37:28.127Z,100744.13
2023-04-10T13:39:59.109Z,100740.80
2023-04-10T13:42:30.053Z,100745.36
2023-04-10T13:45:01.622Z,100746.64
2023-04-10T13:47:32.585Z,100745.80
2023-04-10T13:50:03.431Z,100745.20
2023-04-10T13:52:34.457Z,100748.29
2023-04-10T13:55:05.675Z,100746.28
2023-04-10T13:57:36.446Z,100744.02
2023-04-10T14:00:08.873Z,100746.20
2023-04-10T14:02:39.676Z,100739.35
2023-04-10T14:05:11.528Z,100735.27
2023-04-10T14:07:42.349Z,100733.86
2023-04-10T14:10:13.404Z,100729.25
2023-04-10T14:12:44.280Z,100727.70
2023-04-10T14:15:15.119Z,100721.36
2023-04-10T14:17:45.983Z,100719.37
2023-04-10T14:20:16.974Z,100719.58
2023-04-10T14:22:48.350Z,100718.70
2023-04-10T14:25:19.247Z,100714.96
2023-04-10T14:27:50.168Z,100714.80
2023-04-10T14:30:20.960Z,100715.14
2023-04-10T14:32:51.713Z,100717.80
2023-04-10T14:35:22.785Z,100716.95
2023-04-10T14:37:53.632Z,100722.24
2023-04-10T14:40:24.745Z,100723.79
2023-04-10T14:42:55.447Z,100731.02
2023-04-10T14:45:26.377Z,100732.24
2023-04-10T14:47:57.708Z,100727.23
2023-04-10T14:50:29.549Z,100727.17
2023-04-10T14:53:01.067Z,100723.73
2023-04-10T14:55:31.946Z,100722.17
2023-04-10T14:58:04.002Z,100722.36
2023-04-10T15:00:35.109Z,100722.27
2023-04-10T15:03:06.701Z,100722.49
2023-04-10T15:05:38.279Z,100723.05
2023-04-10T15:08:11.706Z,100715.77
2023-04-10T15:10:42.878Z,100717.53
2023-04-10T15:13:13.746Z,100713.17
2023-04-10T15:15:45.808Z,100708.77
2023-04-10T15:18:16.741Z,100707.13
2023-04-10T15:20:47.653Z,100706.66
2023-04-10T15:23:18.348Z,100700.14
2023-04-10T15:25:49.290Z,100698.56
2023-04-10T15:28:20.283Z,100697.17
2023-04-10T15:30:54.030Z,100695.39
2023-04-10T15:33:26.214Z,100696.29
2023-04-10T15:35:57.180Z,100695.80
2023-04-10T15:38:28.973Z,100694.39
2023-04-10T15:40:59.832Z,100693.95
2023-04-10T15:43:33.578Z,100694.59
2023-04-10T15:46:04.766Z,100692.26
2023-04-10T15:48:35.635Z,100689.20
2023-04-10T15:51:06.786Z,100690.00
2023-04-10T15:53:37.551Z,100685.67
2023-04-10T15:56:09.253Z,100683.02
2023-04-10T15:58:40.093Z,100677.80
2023-04-10T16:01:11.155Z,100683.48
2023-04-10T16:03:42.227Z,100678.88
2023-04-10T16:06:13.592Z,100675.48
2023-04-10T16:08:44.522Z,100676.40
2023-04-10T16:11:16.378Z,100672.30
2023-04-10T16:13:47.533Z,100673.39
2023-04-10T16:16:19.355Z,100668.73
2023-04-10T16:18:52.020Z,100668.57
2023-04-10T16:21:23.473Z,100664.73
2023-04-10T16:23:56.746Z,100664.55
2023-04-10T16:26:27.699Z,100662.39
2023-04-10T16:28:58.498Z,100666.66
2023-04-10T16:31:31.939Z,100667.06
2023-04-10T16:34:02.895Z,100666.54
2023-04-10T16:36:39.802Z,100667.29
2023-04-10T16:39:10.849Z,100666.98
2023-04-10T16:42:03.780Z,100670.20
2023-04-10T16:44:41.734Z,100670.88
2023-04-10T16:47:12.950Z,100669.80
2023-04-10T16:49:45.820Z,100669.70
2023-04-10T16:52:16.737Z,100664.73
2023-04-10T16:54:50.241Z,100671.77
2023-04-10T16:57:23.549Z,100669.66
2023-04-10T17:00:10.569Z,100673.85
2023-04-10T17:02:43.225Z,100676.24
2023-04-10T17:05:14.268Z,100679.02
2023-04-10T17:07:45.295Z,100678.77
2023-04-10T17:10:16.216Z,100680.48
2023-04-10T17:12:46.908Z,100679.48
2023-04-10T17:15:18.222Z,100682.73
2023-04-10T17:17:50.293Z,100683.36
2023-04-10T17:20:22.585Z,100684.70
2023-04-10T17:22:53.413Z,100684.65
2023-04-10T17:25:25.573Z,100687.35
2023-04-10T17:27:56.784Z,100688.42
2023-04-10T17:30:27.622Z,100685.35
2023-04-10T17:33:00.970Z,100692.15
2023-04-10T17:35:33.926Z,100697.38
2023-04-10T17:38:05.262Z,100699.26
2023-04-10T17:40:40.988Z,100702.14
2023-04-10T17:43:11.920Z,100702.75
2023-04-10T17:48:50.649Z,100707.36
2023-04-10T17:51:21.821Z,100706.66
2023-04-10T17:53:59.182Z,100707.03
2023-04-10T17:56:35.200Z,100707.29
2023-04-10T17:59:17.748Z,100709.32
2023-04-10T18:01:49.549Z,100711.21
2023-04-10T18:06:45.833Z,100703.55
2023-04-10T18:09:16.995Z,100705.06
2023-04-10T18:11:49.981Z,100704.40
2023-04-10T18:14:20.909Z,100706.80
2023-04-10T18:16:51.918Z,100708.48
2023-04-10T18:19:22.801Z,100707.34
2023-04-10T18:21:53.610Z,100707.77
2023-04-10T18:24:26.252Z,100710.34
2023-04-10T18:26:57.575Z,100708.59
2023-04-10T18:29:30.430Z,100708.23
2023-04-10T18:32:01.642Z,100707.48
2023-04-10T18:34:32.883Z,100703.49
2023-04-10T18:37:04.141Z,100701.02
2023-04-10T18:39:36.611Z,100704.32
2023-04-10T18:42:09.379Z,100704.71
2023-04-10T18:44:40.248Z,100700.64
2023-04-10T18:47:11.861Z,100697.64
2023-04-10T18:49:42.658Z,100693.45
2023-04-10T18:52:13.537Z,100692.06
2023-04-10T18:54:44.872Z,100691.75
2023-04-10T18:57:15.820Z,100693.73
2023-04-10T18:59:46.595Z,100691.23
2023-04-10T19:02:17.696Z,100691.11
2023-04-10T19:04:49.031Z,100692.64
2023-04-10T19:07:20.123Z,100691.02
2023-04-10T19:09:51.064Z,100691.88
2023-04-10T19:12:21.931Z,100690.56
2023-04-10T19:14:52.686Z,100691.04
2023-04-10T19:17:25.083Z,100688.56
2023-04-10T19:19:57.216Z,100689.37
2023-04-10T19:22:28.039Z,100684.38
2023-04-10T19:25:02.181Z,100682.41
2023-04-10T19:27:32.982Z,100682.88
2023-04-10T19:30:03.877Z,100682.39
2023-04-10T19:32:34.832Z,100681.41
2023-04-10T19:35:06.536Z,100680.48
2023-04-10T19:37:37.478Z,100683.86
2023-04-10T19:40:10.299Z,100685.39
2023-04-10T19:42:41.067Z,100682.85
2023-04-10T19:45:13.010Z,100682.67
2023-04-10T19:47:43.866Z,100680.17
2023-04-10T19:50:14.730Z,100680.79
2023-04-10T19:52:45.512Z,100687.16
2023-04-10T19:55:18.688Z,100684.64
2023-04-10T19:57:50.691Z,100680.58
2023-04-10T20:00:21.658Z,100678.42
2023-04-10T20:02:52.832Z,100679.80
2023-04-10T20:05:23.910Z,100682.55
2023-04-10T20:07:55.547Z,100682.51
2023-04-10T20:10:26.559Z,100681.05
2023-04-10T20:12:57.536Z,100684.05
2023-04-10T20:15:28.493Z,100681.77
2023-04-10T20:17:59.380Z,100683.40
2023-04-10T20:20:30.218Z,100670.27
2023-04-10T20:23:01.124Z,100671.15
2023-04-10T20:25:31.798Z,100672.42
2023-04-10T20:28:02.661Z,100668.29
2023-04-10T20:30:33.442Z,100669.38
2023-04-10T20:33:04.227Z,100668.37
2023-04-10T20:35:34.999Z,100660.83
2023-04-10T20:38:05.721Z,100666.05
2023-04-10T20:40:36.847Z,100661.42
2023-04-10T20:43:11.477Z,100655.25
2023-04-10T20:45:42.419Z,100649.79
2023-04-10T20:48:13.246Z,100650.60
2023-04-10T20:50:49.145Z,100647.32
2023-04-10T20:53:20.004Z,100645.38
2023-04-10T20:55:54.415Z,100640.48
2023-04-10T20:58:25.302Z,100641.00
2023-04-10T21:00:56.791Z,100639.89
2023-04-10T21:03:27.935Z,100640.48
2023-04-10T21:05:59.093Z,100639.10
2023-04-10T21:08:30.013Z,100636.81
2023-04-10T21:11:00.660Z,100635.36
2023-04-10T21:13:31.482Z,100634.34
2023-04-10T21:16:02.266Z,100632.35
2023-04-10T21:18:33.120Z,100634.82
2023-04-10T21:21:03.901Z,100634.48
2023-04-10T21:23:34.754Z,100626.05
2023-04-10T21:26:05.529Z,100622.08
2023-04-10T21:28:36.320Z,100616.34
2023-04-10T21:31:07.425Z,100615.85
2023-04-10T21:33:38.315Z,100615.95
2023-04-10T21:36:09.525Z,100617.12
2023-04-10T21:38:40.584Z,100612.75
2023-04-10T21:41:11.440Z,100612.34
2023-04-10T21:43:43.511Z,100608.48
2023-04-10T21:46:14.474Z,100604.19
2023-04-10T21:48:45.609Z,100604.42
2023-04-10T21:51:16.345Z,100604.98
2023-04-10T21:53:48.274Z,100605.38
2023-04-10T21:56:19.094Z,100607.95
2023-04-10T21:58:49.930Z,100607.79
2023-04-10T22:01:20.849Z,100613.90
2023-04-10T22:03:53.403Z,100613.93
2023-04-10T22:06:24.333Z,100612.52
2023-04-10T22:08:55.364Z,100609.31
2023-04-10T22:11:26.439Z,100611.77
2023-04-10T22:14:00.192Z,100612.23
2023-04-10T22:16:33.699Z,100613.50
2023-04-10T22:19:04.644Z,100609.65
2023-04-10T22:21:35.507Z,100612.12
2023-04-10T22:24:06.449Z,100611.67
2023-04-10T22:26:37.201Z,100611.11
2023-04-10T22:29:07.971Z,100608.14
2023-04-10T22:31:38.652Z,100603.08
2023-04-10T22:34:10.507Z,100600.88
2023-04-10T22:36:41.336Z,100596.08
2023-04-10T22:39:12.047Z,100592.02
2023-04-10T22:41:44.120Z,100588.11
2023-04-10T22:44:15.230Z,100585.95
2023-04-10T22:46:48.365Z,100584.15
2023-04-10T22:49:19.700Z,100577.14
2023-04-10T22:51:50.430Z,100573.13
2023-04-10T22:54:21.280Z,100572.05
2023-04-10T22:56:52.502Z,100565.24
2023-04-10T22:59:23.224Z,100563.81
2023-04-10T23:01:53.990Z,100561.21
2023-04-10T23:04:24.888Z,100558.46
2023-04-10T23:06:55.591Z,100555.17
2023-04-10T23:09:26.420Z,100550.49
2023-04-10T23:11:57.677Z,100544.78
2023-04-10T23:14:28.492Z,100538.61
2023-04-10T23:16:59.309Z,100537.89
2023-04-10T23:19:30.113Z,100532.52
2023-04-10T23:22:01.018Z,100529.45
2023-04-10T23:24:31.811Z,100527.09
2023-04-10T23:27:03.611Z,100525.17
2023-04-10T23:29:34.614Z,100522.30
2023-04-10T23:32:05.450Z,100518.95
2023-04-10T23:34:36.333Z,100518.08
2023-04-10T23:40:48.980Z,100507.86
2023-04-10T23:43:19.836Z,100503.12
2023-04-10T23:45:50.685Z,100500.14
2023-04-10T23:48:21.395Z,100502.02
2023-04-10T23:50:52.229Z,100499.05
2023-04-10T23:53:23.059Z,100498.87
2023-04-10T23:55:53.782Z,100494.16
2023-04-10T23:58:24.636Z,100491.58
